Time;durP1;ratioP1;P1;durP2;ratioP2;P2;SDS_P1;SDS_P2;PMS_P1;PMS_P2;Temp;Humidity;BMP_temperature;BMP_pressure;BME280_temperature;BME280_humidity;BME280_pressure;Samples;Min_cycle;Max_cycle;Signal;HPM_P1;HPM_P2
2023/02/28 00:01:14;;;;;;;4.17;2.93;;;-1.80;89.60;;;;;;5112659;27;20207;-82
2023/02/28 00:03:42;;;;;;;6.07;3.17;;;-1.80;89.90;;;;;;5104641;27;20193;-82
2023/02/28 00:06:10;;;;;;;4.07;3.00;;;-1.80;90.20;;;;;;5106008;28;20220;-81
2023/02/28 00:08:37;;;;;;;4.57;2.90;;;-1.70;89.90;;;;;;5098605;28;20627;-83
2023/02/28 00:11:05;;;;;;;5.13;3.00;;;-1.70;89.30;;;;;;5111140;28;20636;-82
2023/02/28 00:13:32;;;;;;;5.30;3.40;;;-1.70;89.60;;;;;;5108012;28;20195;-81
2023/02/28 00:16:04;;;;;;;6.23;3.13;;;-1.70;89.80;;;;;;5106880;27;20200;-82
2023/02/28 00:18:30;;;;;;;6.03;3.23;;;-1.80;89.50;;;;;;5107539;27;20196;-82
2023/02/28 00:20:59;;;;;;;5.90;3.40;;;-1.80;90.30;;;;;;5106217;27;20274;-85
2023/02/28 00:23:26;;;;;;;5.43;3.30;;;-1.90;90.40;;;;;;5104154;27;20700;-81
2023/02/28 00:25:55;;;;;;;4.57;3.30;;;-1.90;90.20;;;;;;5105109;28;20230;-81
2023/02/28 00:28:23;;;;;;;6.13;3.13;;;-1.80;90.30;;;;;;5105027;27;20287;-82
2023/02/28 00:30:49;;;;;;;5.87;3.47;;;-1.80;90.40;;;;;;5111135;27;20204;-85
2023/02/28 00:33:17;;;;;;;5.00;3.20;;;-1.90;90.40;;;;;;5103965;27;20211;-82
2023/02/28 00:35:46;;;;;;;5.87;3.13;;;-1.90;90.40;;;;;;5099115;27;20658;-82
2023/02/28 00:38:15;;;;;;;4.90;3.17;;;-2.00;90.60;;;;;;5109699;27;20227;-81
2023/02/28 00:40:42;;;;;;;4.27;3.40;;;-2.00;90.90;;;;;;5105437;27;20209;-81
2023/02/28 00:43:09;;;;;;;4.57;3.43;;;-2.00;90.80;;;;;;5110371;27;20229;-86
2023/02/28 00:45:36;;;;;;;4.73;3.40;;;-2.00;90.90;;;;;;5103315;27;20230;-82
2023/02/28 00:48:04;;;;;;;7.87;3.67;;;-2.00;90.90;;;;;;5106235;27;20689;-82
2023/02/28 00:50:30;;;;;;;6.37;3.37;;;-1.90;90.80;;;;;;5107664;27;20254;-84
2023/02/28 00:52:57;;;;;;;5.67;3.63;;;-2.00;90.90;;;;;;5113144;28;20934;-82
2023/02/28 00:55:25;;;;;;;3.77;2.90;;;-2.10;90.90;;;;;;5102962;27;20296;-81
2023/02/28 00:57:52;;;;;;;4.97;3.37;;;-2.10;91.10;;;;;;5107785;28;20587;-81
2023/02/28 01:00:20;;;;;;;5.47;3.13;;;-2.10;91.00;;;;;;5102855;28;20200;-81
2023/02/28 01:02:47;;;;;;;4.63;3.37;;;-2.10;91.30;;;;;;5108606;28;20733;-83
2023/02/28 01:05:14;;;;;;;4.10;3.27;;;-2.10;91.40;;;;;;5104459;28;20192;-82
2023/02/28 01:07:40;;;;;;;6.53;3.77;;;-2.10;91.40;;;;;;5106035;28;20209;-82
2023/02/28 01:10:09;;;;;;;3.87;2.90;;;-2.20;91.40;;;;;;5103961;27;20196;-81
2023/02/28 01:12:37;;;;;;;5.83;3.40;;;-2.20;91.50;;;;;;5105338;28;20196;-85
2023/02/28 01:15:05;;;;;;;4.53;3.30;;;-2.20;91.60;;;;;;5097276;28;20578;-82
2023/02/28 01:17:31;;;;;;;5.63;3.33;;;-2.10;91.40;;;;;;5112441;27;20200;-81
2023/02/28 01:19:58;;;;;;;7.27;3.77;;;-2.20;91.40;;;;;;5099203;28;20204;-81
2023/02/28 01:22:25;;;;;;;4.47;3.10;;;-2.20;91.50;;;;;;5101106;27;20212;-82
2023/02/28 01:24:52;;;;;;;5.03;3.57;;;-2.20;91.40;;;;;;5100957;28;20199;-81
2023/02/28 01:27:19;;;;;;;6.03;3.80;;;-2.20;91.20;;;;;;5107685;28;20839;-81
2023/02/28 01:29:47;;;;;;;5.03;3.63;;;-2.20;91.20;;;;;;5103494;27;20196;-83
2023/02/28 01:32:14;;;;;;;5.00;3.50;;;-2.20;91.20;;;;;;5107655;28;20208;-82
2023/02/28 01:34:42;;;;;;;4.37;3.60;;;-2.20;91.40;;;;;;5103265;27;20244;-82
2023/02/28 01:37:09;;;;;;;5.90;3.73;;;-2.20;91.40;;;;;;5095574;28;20197;-81
2023/02/28 01:39:36;;;;;;;5.30;3.40;;;-2.30;91.70;;;;;;5105733;28;20211;-82
2023/02/28 01:42:03;;;;;;;4.33;3.60;;;-2.20;91.80;;;;;;5103271;28;20635;-82
2023/02/28 01:44:58;;;;;;;6.10;3.60;;;-2.30;91.90;;;;;;5100626;28;20199;-81
2023/02/28 01:47:28;;;;;;;7.47;3.87;;;-2.30;91.60;;;;;;5106573;28;20272;-81
2023/02/28 01:49:55;;;;;;;4.77;3.53;;;-2.30;91.90;;;;;;5122208;27;20195;-82
2023/02/28 01:52:24;;;;;;;4.27;3.20;;;-2.30;91.80;;;;;;5112999;27;20195;-81
2023/02/28 01:54:54;;;;;;;4.93;3.53;;;-2.30;91.80;;;;;;5111784;27;20204;-82
2023/02/28 01:57:27;;;;;;;5.63;4.10;;;-2.30;91.90;;;;;;5106541;27;20195;-82
2023/02/28 01:59:59;;;;;;;5.03;3.57;;;-2.30;91.90;;;;;;5104480;28;20204;-82
2023/02/28 02:02:27;;;;;;;5.27;3.80;;;-2.40;92.10;;;;;;5115820;27;20243;-81
2023/02/28 02:04:58;;;;;;;5.63;3.70;;;-2.40;92.10;;;;;;5100902;27;20201;-82
2023/02/28 02:07:26;;;;;;;6.80;3.53;;;-2.30;92.00;;;;;;5102123;28;20211;-81
2023/02/28 02:10:02;;;;;;;5.73;3.77;;;-2.30;91.90;;;;;;5102195;28;20200;-84
2023/02/28 02:12:49;;;;;;;6.20;4.07;;;-2.30;92.10;;;;;;5106772;28;20192;-83
2023/02/28 02:15:21;;;;;;;6.30;3.87;;;-2.40;92.10;;;;;;5106621;28;20204;-82
2023/02/28 02:17:53;;;;;;;5.53;3.83;;;-2.40;92.10;;;;;;5100753;28;20199;-81
2023/02/28 02:20:52;;;;;;;5.93;3.73;;;-2.30;91.90;;;;;;5100552;28;20192;-82
2023/02/28 02:23:46;;;;;;;8.40;3.93;;;-2.40;92.10;;;;;;5101794;28;20230;-82
2023/02/28 02:26:51;;;;;;;4.93;3.80;;;-2.40;92.30;;;;;;5101262;28;20223;-82
2023/02/28 02:29:46;;;;;;;7.97;3.90;;;-2.40;92.20;;;;;;5100906;28;20199;-81
2023/02/28 02:32:46;;;;;;;4.80;3.60;;;-2.40;92.40;;;;;;5103652;27;20206;-82
2023/02/28 02:35:17;;;;;;;5.23;3.60;;;-2.50;92.40;;;;;;5106112;28;20214;-82
2023/02/28 02:37:49;;;;;;;9.17;4.03;;;-2.50;92.50;;;;;;5106478;28;20204;-86
2023/02/28 02:40:20;;;;;;;8.73;4.13;;;-2.50;92.60;;;;;;5106445;28;20204;-82
2023/02/28 02:42:55;;;;;;;5.27;3.80;;;-2.50;92.60;;;;;;5104757;28;20295;-83
2023/02/28 02:45:27;;;;;;;5.73;3.90;;;-2.40;92.60;;;;;;5100318;28;20200;-81
2023/02/28 02:47:57;;;;;;;6.00;3.70;;;-2.40;92.80;;;;;;5102586;28;20261;-81
2023/02/28 02:50:32;;;;;;;6.53;3.67;;;-2.40;92.60;;;;;;5111440;28;20202;-81
2023/02/28 02:53:01;;;;;;;5.87;3.47;;;-2.50;92.80;;;;;;5100534;28;20196;-81
2023/02/28 02:55:29;;;;;;;6.90;4.13;;;-2.50;92.80;;;;;;5096888;28;20200;-81
2023/02/28 02:58:00;;;;;;;7.20;4.17;;;-2.50;92.70;;;;;;5103688;28;20200;-83
2023/02/28 03:00:33;;;;;;;5.00;3.73;;;-2.50;92.70;;;;;;5104841;28;20203;-82
2023/02/28 03:03:01;;;;;;;7.27;3.70;;;-2.50;92.90;;;;;;5109530;28;20192;-81
2023/02/28 03:05:35;;;;;;;6.03;4.30;;;-2.50;93.10;;;;;;5107274;28;20204;-81
2023/02/28 03:08:05;;;;;;;6.37;4.40;;;-2.60;93.40;;;;;;5097174;28;20215;-81
2023/02/28 03:10:38;;;;;;;5.00;3.90;;;-2.60;92.90;;;;;;5109584;28;20188;-81
2023/02/28 03:13:24;;;;;;;6.60;3.90;;;-2.60;93.10;;;;;;5109926;28;20571;-82
2023/02/28 03:16:07;;;;;;;6.60;3.73;;;-2.60;93.50;;;;;;5104301;28;20193;-81
2023/02/28 03:18:41;;;;;;;9.33;4.13;;;-2.60;93.50;;;;;;5099831;28;20592;-82
2023/02/28 03:21:19;;;;;;;6.00;4.00;;;-2.60;93.50;;;;;;5100587;28;20196;-81
2023/02/28 03:23:54;;;;;;;6.20;3.83;;;-2.60;93.50;;;;;;5107701;28;20199;-81
2023/02/28 03:26:25;;;;;;;5.93;4.57;;;-2.60;93.50;;;;;;5102580;28;20215;-82
2023/02/28 03:28:59;;;;;;;7.10;4.77;;;-2.60;93.50;;;;;;5101857;28;20200;-82
2023/02/28 03:31:31;;;;;;;6.47;4.53;;;-2.70;93.50;;;;;;5102079;28;20203;-81
2023/02/28 03:34:04;;;;;;;7.20;4.60;;;-2.70;93.50;;;;;;5100176;28;20241;-81
2023/02/28 03:36:43;;;;;;;7.33;4.53;;;-2.70;93.50;;;;;;5102046;28;20210;-82
2023/02/28 03:39:14;;;;;;;7.83;4.70;;;-2.70;93.50;;;;;;5105650;28;20204;-83
2023/02/28 03:41:47;;;;;;;6.37;4.40;;;-2.70;93.50;;;;;;5118160;27;20206;-81
2023/02/28 03:44:18;;;;;;;6.10;4.40;;;-2.70;93.50;;;;;;5108793;27;20648;-83
2023/02/28 03:46:53;;;;;;;5.97;4.40;;;-2.70;93.50;;;;;;5106351;27;20234;-86
2023/02/28 03:49:23;;;;;;;6.47;4.50;;;-2.70;93.60;;;;;;5110173;27;20206;-82
2023/02/28 03:51:52;;;;;;;5.73;4.67;;;-2.70;93.90;;;;;;5109247;27;20196;-81
2023/02/28 03:54:23;;;;;;;6.40;4.70;;;-2.70;93.70;;;;;;5112088;27;20191;-81
2023/02/28 03:56:55;;;;;;;7.00;4.63;;;-2.70;93.80;;;;;;5114455;27;20215;-87
2023/02/28 03:59:26;;;;;;;6.13;4.70;;;-2.70;94.00;;;;;;5111678;27;20204;-82
2023/02/28 04:01:54;;;;;;;6.47;4.70;;;-2.70;93.90;;;;;;5110188;27;20202;-82
2023/02/28 04:04:22;;;;;;;6.87;5.17;;;-2.70;94.00;;;;;;5108246;28;20235;-81
2023/02/28 04:06:53;;;;;;;8.63;5.33;;;-2.70;94.20;;;;;;5102271;27;20591;-81
2023/02/28 04:09:20;;;;;;;7.00;5.00;;;-2.70;94.20;;;;;;5107687;27;20197;-84
2023/02/28 04:11:51;;;;;;;7.80;5.13;;;-2.70;94.10;;;;;;5106922;27;20788;-82
2023/02/28 04:14:18;;;;;;;8.93;5.10;;;-2.80;94.30;;;;;;5106589;28;20199;-82
2023/02/28 04:16:46;;;;;;;7.10;5.33;;;-2.80;94.50;;;;;;5099349;28;20211;-86
2023/02/28 04:19:14;;;;;;;9.37;5.43;;;-2.70;94.50;;;;;;5106071;28;20220;-82
2023/02/28 04:21:42;;;;;;;8.10;5.60;;;-2.80;94.50;;;;;;5104836;28;20248;-82
2023/02/28 04:24:14;;;;;;;8.60;5.50;;;-2.80;94.50;;;;;;5104741;28;20195;-82
2023/02/28 04:26:43;;;;;;;8.43;5.87;;;-2.80;94.70;;;;;;5105554;28;20211;-85
2023/02/28 04:29:12;;;;;;;8.37;5.70;;;-2.80;94.60;;;;;;5104662;28;20196;-82
2023/02/28 04:31:39;;;;;;;9.57;5.97;;;-2.80;94.80;;;;;;5105874;28;20651;-81
2023/02/28 04:34:07;;;;;;;9.07;6.40;;;-2.80;94.90;;;;;;5104509;28;20196;-81
2023/02/28 04:36:34;;;;;;;7.60;5.87;;;-2.80;94.90;;;;;;5100763;28;20207;-82
2023/02/28 04:39:01;;;;;;;10.37;6.80;;;-2.80;95.10;;;;;;5106142;28;20208;-83
2023/02/28 04:41:29;;;;;;;9.47;6.40;;;-2.60;95.20;;;;;;5107846;27;20208;-82
2023/02/28 04:43:56;;;;;;;9.27;6.17;;;-2.50;94.90;;;;;;5113109;27;20199;-81
2023/02/28 04:46:24;;;;;;;8.03;5.70;;;-2.50;94.90;;;;;;5102576;27;20192;-86
2023/02/28 04:48:50;;;;;;;11.10;6.40;;;-2.40;94.50;;;;;;5098857;28;20200;-82
2023/02/28 04:51:19;;;;;;;10.83;6.30;;;-2.40;94.80;;;;;;5098054;27;20568;-82
2023/02/28 04:53:47;;;;;;;9.27;6.50;;;-2.40;94.40;;;;;;5108997;28;20733;-82
2023/02/28 04:56:15;;;;;;;9.70;6.17;;;-2.30;94.50;;;;;;5102889;28;20192;-82
2023/02/28 04:58:44;;;;;;;11.93;6.30;;;-2.30;94.30;;;;;;5105412;27;20568;-82
2023/02/28 05:01:20;;;;;;;8.67;6.37;;;-2.30;94.30;;;;;;5105795;28;20192;-82
2023/02/28 05:03:47;;;;;;;8.83;6.40;;;-2.30;94.40;;;;;;5107805;28;20192;-82
2023/02/28 05:06:14;;;;;;;10.43;6.50;;;-2.30;94.20;;;;;;5105004;28;20200;-84
2023/02/28 05:08:42;;;;;;;10.70;6.97;;;-2.20;94.30;;;;;;5106131;28;20224;-81
2023/02/28 05:11:15;;;;;;;10.27;6.90;;;-2.20;94.30;;;;;;5100665;28;20284;-81
2023/02/28 05:13:43;;;;;;;12.27;7.60;;;-2.10;94.40;;;;;;5105395;28;20200;-82
2023/02/28 05:16:10;;;;;;;11.50;7.27;;;-2.10;94.20;;;;;;5098876;28;20227;-82
2023/02/28 05:18:37;;;;;;;11.77;7.37;;;-2.10;94.10;;;;;;5099863;28;20192;-82
2023/02/28 05:21:04;;;;;;;12.10;7.47;;;-2.10;94.40;;;;;;5110100;27;20648;-81
2023/02/28 05:23:31;;;;;;;13.73;8.10;;;-2.10;94.30;;;;;;5108035;28;20217;-83
2023/02/28 05:25:58;;;;;;;10.90;7.50;;;-2.00;94.30;;;;;;5104197;27;20210;-83
2023/02/28 05:28:25;;;;;;;12.70;8.07;;;-2.00;94.20;;;;;;5105837;28;20221;-81
2023/02/28 05:30:53;;;;;;;15.40;7.63;;;-2.00;94.20;;;;;;5101645;27;20207;-85
2023/02/28 05:33:20;;;;;;;13.50;8.03;;;-1.90;94.20;;;;;;5106659;28;20192;-82
2023/02/28 05:35:47;;;;;;;11.70;7.63;;;-1.80;93.80;;;;;;5102107;28;20200;-81
2023/02/28 05:38:13;;;;;;;11.20;7.87;;;-1.80;93.70;;;;;;5102894;27;20804;-81
2023/02/28 05:40:40;;;;;;;13.57;8.10;;;-1.80;93.60;;;;;;5113182;27;20208;-81
2023/02/28 05:43:11;;;;;;;14.40;8.87;;;-1.80;93.60;;;;;;5108367;27;20188;-81
2023/02/28 05:45:38;;;;;;;13.40;8.47;;;-1.70;93.70;;;;;;5105813;28;20200;-82
2023/02/28 05:48:06;;;;;;;12.80;8.40;;;-1.80;93.60;;;;;;5108410;28;20224;-85
2023/02/28 05:50:33;;;;;;;14.73;8.87;;;-1.70;93.70;;;;;;5109297;28;20205;-81
2023/02/28 05:53:00;;;;;;;16.40;9.47;;;-1.70;93.70;;;;;;5103731;28;20206;-85
2023/02/28 05:55:27;;;;;;;13.40;9.10;;;-1.70;93.70;;;;;;5104040;28;20188;-83
2023/02/28 05:57:54;;;;;;;13.07;9.60;;;-1.60;93.40;;;;;;5104242;28;20206;-83
2023/02/28 06:00:21;;;;;;;14.80;9.43;;;-1.60;93.20;;;;;;5107456;28;20644;-84
2023/02/28 06:02:48;;;;;;;13.67;9.50;;;-1.70;93.40;;;;;;5101504;27;20644;-86
2023/02/28 06:05:18;;;;;;;15.17;9.60;;;-1.70;93.30;;;;;;5099025;28;20192;-83
2023/02/28 06:07:45;;;;;;;13.43;9.70;;;-1.60;93.10;;;;;;5102750;28;20222;-84
2023/02/28 06:10:13;;;;;;;12.60;9.43;;;-1.60;93.70;;;;;;5103521;28;20239;-85
2023/02/28 06:12:41;;;;;;;15.03;10.23;;;-1.50;93.00;;;;;;5102746;28;20256;-85
2023/02/28 06:15:09;;;;;;;13.33;9.37;;;-1.20;93.40;;;;;;5104148;28;20192;-83
2023/02/28 06:17:35;;;;;;;14.93;9.60;;;-0.90;92.00;;;;;;5095907;28;20199;-82
2023/02/28 06:20:02;;;;;;;14.10;9.60;;;-1.00;91.90;;;;;;5100189;28;20679;-83
2023/02/28 06:22:31;;;;;;;15.70;9.33;;;-1.10;91.70;;;;;;5098418;27;20215;-85
2023/02/28 06:24:58;;;;;;;15.90;10.40;;;-1.20;91.40;;;;;;5105183;28;20197;-83
2023/02/28 06:27:25;;;;;;;15.73;10.20;;;-1.50;92.50;;;;;;5106144;28;20216;-84
2023/02/28 06:29:54;;;;;;;15.47;10.80;;;-1.40;92.60;;;;;;5101530;28;20205;-83
2023/02/28 06:32:21;;;;;;;16.03;10.50;;;-1.40;92.40;;;;;;5110304;28;20648;-83
2023/02/28 06:34:48;;;;;;;16.43;9.83;;;-1.40;92.20;;;;;;5104546;28;20196;-86
2023/02/28 06:37:15;;;;;;;17.23;10.90;;;-1.40;92.00;;;;;;5103098;28;20197;-83
2023/02/28 06:39:44;;;;;;;17.07;10.37;;;-1.40;92.10;;;;;;5108394;27;20208;-86
2023/02/28 06:42:11;;;;;;;17.10;10.70;;;-1.40;92.10;;;;;;5101746;28;20207;-89
2023/02/28 06:44:39;;;;;;;16.50;10.77;;;-1.40;92.20;;;;;;5102491;27;20211;-88
2023/02/28 06:47:07;;;;;;;16.07;11.17;;;-1.50;92.40;;;;;;5105848;28;20210;-91
2023/02/28 06:49:36;;;;;;;14.03;10.50;;;-1.30;93.70;;;;;;5106586;28;20299;-86
2023/02/28 06:52:03;;;;;;;15.73;11.37;;;-1.20;92.70;;;;;;5107584;28;20195;-85
2023/02/28 06:54:30;;;;;;;16.00;10.80;;;-1.30;92.20;;;;;;5106137;27;20211;-86
2023/02/28 06:56:59;;;;;;;16.23;11.17;;;-1.20;91.90;;;;;;5101015;28;20188;-86
2023/02/28 06:59:26;;;;;;;16.20;10.70;;;-1.20;91.90;;;;;;5095339;28;20197;-85
2023/02/28 07:01:52;;;;;;;19.47;11.13;;;-1.20;92.20;;;;;;5101981;28;20202;-86
2023/02/28 07:04:19;;;;;;;15.20;10.93;;;-1.30;91.80;;;;;;5110607;28;20212;-85
2023/02/28 07:06:46;;;;;;;15.40;11.07;;;-1.20;91.70;;;;;;5107714;28;20222;-86
2023/02/28 07:09:13;;;;;;;16.80;11.20;;;-1.20;91.70;;;;;;5102271;28;20212;-86
2023/02/28 07:11:42;;;;;;;15.23;11.17;;;-1.30;91.70;;;;;;5105122;28;20603;-85
2023/02/28 07:14:11;;;;;;;18.73;11.30;;;-1.30;92.10;;;;;;5101188;28;20210;-86
2023/02/28 07:16:37;;;;;;;18.00;11.53;;;-1.20;91.90;;;;;;5107620;28;20230;-85
2023/02/28 07:19:04;;;;;;;17.17;11.43;;;-1.30;92.00;;;;;;5111253;27;20240;-86
2023/02/28 07:21:31;;;;;;;18.20;12.30;;;-1.40;92.20;;;;;;5101848;28;20188;-87
2023/02/28 07:23:58;;;;;;;15.63;11.80;;;-1.60;92.40;;;;;;5108247;28;20204;-86
2023/02/28 07:26:25;;;;;;;16.33;11.47;;;-1.50;92.60;;;;;;5109422;28;20212;-85
2023/02/28 07:28:52;;;;;;;20.30;11.23;;;-1.40;92.40;;;;;;5105670;28;20245;-86
2023/02/28 07:31:21;;;;;;;14.83;11.33;;;-1.40;92.10;;;;;;5119060;27;20213;-86
2023/02/28 07:33:48;;;;;;;16.60;11.07;;;-1.30;91.90;;;;;;5109476;28;20203;-85
2023/02/28 07:36:18;;;;;;;16.40;11.27;;;-1.40;92.20;;;;;;5109825;28;20193;-85
2023/02/28 07:38:47;;;;;;;16.83;11.50;;;-1.30;92.10;;;;;;5114292;28;20247;-86
2023/02/28 07:41:15;;;;;;;16.27;11.13;;;-1.20;92.00;;;;;;5113364;27;20200;-85
2023/02/28 07:43:42;;;;;;;17.10;11.27;;;-1.20;91.60;;;;;;5114476;28;20201;-85
2023/02/28 07:46:10;;;;;;;17.17;11.50;;;-1.10;91.60;;;;;;5104480;27;20204;-86
2023/02/28 07:48:39;;;;;;;15.87;11.37;;;-1.10;91.60;;;;;;5110051;28;20222;-85
2023/02/28 07:51:06;;;;;;;14.87;11.60;;;-1.20;91.60;;;;;;5113763;28;20196;-86
2023/02/28 07:53:33;;;;;;;17.27;11.53;;;-1.20;91.70;;;;;;5108666;28;20198;-85
2023/02/28 07:56:01;;;;;;;17.83;11.67;;;-1.10;91.70;;;;;;5114180;27;20198;-86
2023/02/28 07:58:29;;;;;;;19.17;12.47;;;-1.00;91.70;;;;;;5105336;28;20196;-85
2023/02/28 08:00:56;;;;;;;17.33;11.73;;;-0.90;91.50;;;;;;5109506;27;20203;-86
2023/02/28 08:03:24;;;;;;;14.60;11.00;;;-0.90;90.90;;;;;;5112161;28;20220;-86
2023/02/28 08:05:53;;;;;;;17.53;11.47;;;-0.80;91.20;;;;;;5104946;28;20562;-87
2023/02/28 08:08:20;;;;;;;19.53;11.80;;;-0.70;91.00;;;;;;5107305;28;20241;-82
2023/02/28 08:10:47;;;;;;;18.23;12.37;;;-0.70;91.20;;;;;;5108434;28;20209;-85
2023/02/28 08:13:13;;;;;;;17.63;11.83;;;-0.70;91.10;;;;;;5107341;28;20209;-85
2023/02/28 08:15:42;;;;;;;16.87;11.43;;;-0.60;90.80;;;;;;5110818;28;20203;-85
2023/02/28 08:18:08;;;;;;;19.40;11.50;;;-0.70;91.10;;;;;;5103105;27;20203;-85
2023/02/28 08:20:35;;;;;;;17.00;11.70;;;-0.70;91.20;;;;;;5109115;28;20644;-84
2023/02/28 08:23:04;;;;;;;17.37;11.10;;;-0.60;90.80;;;;;;5112965;28;20227;-84
2023/02/28 08:25:30;;;;;;;16.30;11.63;;;-0.70;90.80;;;;;;5109122;28;20643;-84
2023/02/28 08:27:57;;;;;;;20.40;12.37;;;-0.60;91.20;;;;;;5110889;28;20229;-83
2023/02/28 08:30:24;;;;;;;16.80;11.67;;;-0.60;91.20;;;;;;5107265;28;20212;-83
2023/02/28 08:32:51;;;;;;;15.43;11.13;;;-0.60;90.40;;;;;;5110313;28;20199;-84
2023/02/28 08:35:18;;;;;;;17.77;11.33;;;-0.60;90.70;;;;;;5104318;27;20207;-84
2023/02/28 08:37:45;;;;;;;17.13;11.13;;;-0.60;90.70;;;;;;5106063;28;20205;-84
2023/02/28 08:40:17;;;;;;;17.17;11.33;;;-0.50;90.70;;;;;;5110434;27;20203;-84
2023/02/28 08:42:44;;;;;;;16.57;11.47;;;-0.40;90.50;;;;;;5111503;27;20207;-86
2023/02/28 08:45:12;;;;;;;15.70;11.23;;;-0.30;89.40;;;;;;5108371;27;20193;-84
2023/02/28 08:47:39;;;;;;;17.67;11.37;;;-0.50;90.20;;;;;;5105154;27;20210;-84
2023/02/28 08:50:07;;;;;;;15.83;11.43;;;-0.40;89.40;;;;;;5100018;27;20208;-84
2023/02/28 08:52:34;;;;;;;16.23;11.37;;;-0.30;90.00;;;;;;5102565;28;20197;-83
2023/02/28 08:55:01;;;;;;;15.97;11.77;;;-0.10;89.00;;;;;;5113876;28;20200;-83
2023/02/28 08:57:29;;;;;;;17.70;12.67;;;-0.20;88.60;;;;;;5110449;27;20666;-84
2023/02/28 08:59:57;;;;;;;17.40;11.87;;;-0.50;90.10;;;;;;5113326;28;20196;-85
2023/02/28 09:02:23;;;;;;;16.47;11.63;;;-0.40;90.40;;;;;;5104116;28;20196;-84
2023/02/28 09:04:50;;;;;;;17.03;11.03;;;-0.40;90.10;;;;;;5110083;28;20656;-84
2023/02/28 09:07:17;;;;;;;14.47;11.37;;;-0.20;87.10;;;;;;5111689;28;20553;-84
2023/02/28 09:09:54;;;;;;;14.50;10.43;;;0.00;85.80;;;;;;5112633;27;20229;-83
2023/02/28 09:12:21;;;;;;;16.50;11.30;;;0.00;85.80;;;;;;5112798;28;20187;-84
2023/02/28 09:14:50;;;;;;;14.73;11.07;;;0.10;85.90;;;;;;5108903;28;20195;-84
2023/02/28 09:17:17;;;;;;;15.70;10.97;;;-0.10;85.80;;;;;;5110411;28;20878;-86
2023/02/28 09:19:44;;;;;;;20.20;11.57;;;0.00;85.80;;;;;;5103294;28;20228;-84
2023/02/28 09:22:12;;;;;;;15.47;11.43;;;-0.20;85.80;;;;;;5110582;28;20964;-84
2023/02/28 09:24:39;;;;;;;16.90;12.10;;;-0.10;86.10;;;;;;5112465;28;20203;-84
2023/02/28 09:27:06;;;;;;;15.50;11.47;;;0.00;85.80;;;;;;5107360;27;20196;-84
2023/02/28 09:29:34;;;;;;;18.80;11.40;;;-0.20;86.70;;;;;;5098313;28;20219;-84
2023/02/28 09:32:05;;;;;;;17.17;11.20;;;0.00;86.90;;;;;;5103545;28;20211;-84
2023/02/28 09:34:32;;;;;;;17.03;11.33;;;0.20;86.20;;;;;;5108385;28;20199;-84
2023/02/28 09:36:59;;;;;;;19.23;12.23;;;0.20;85.90;;;;;;5099998;28;20193;-84
2023/02/28 09:39:26;;;;;;;17.53;11.70;;;0.20;86.00;;;;;;5099581;28;20648;-85
2023/02/28 09:41:55;;;;;;;16.90;11.50;;;0.10;85.90;;;;;;5108011;28;20303;-84
2023/02/28 09:44:28;;;;;;;17.13;11.40;;;0.30;86.00;;;;;;5101624;28;20535;-84
2023/02/28 09:47:00;;;;;;;16.03;11.47;;;0.40;86.00;;;;;;5101630;27;20719;-84
2023/02/28 09:49:36;;;;;;;16.53;11.67;;;0.50;86.10;;;;;;5109477;27;20302;-85
2023/02/28 09:52:08;;;;;;;17.57;12.17;;;0.80;81.90;;;;;;5110255;28;20192;-84
2023/02/28 09:54:36;;;;;;;16.60;11.30;;;0.90;80.40;;;;;;5102737;28;20195;-84
2023/02/28 09:57:08;;;;;;;18.73;11.20;;;0.90;78.70;;;;;;5099008;28;20304;-85
2023/02/28 09:59:48;;;;;;;18.07;11.37;;;0.80;80.10;;;;;;5104159;28;20228;-84
2023/02/28 10:02:40;;;;;;;15.00;11.40;;;0.80;82.00;;;;;;5100832;28;20197;-85
2023/02/28 10:05:12;;;;;;;15.00;11.13;;;0.90;79.70;;;;;;5106600;28;20192;-84
2023/02/28 10:07:58;;;;;;;19.73;11.37;;;1.00;79.50;;;;;;5109126;28;20195;-85
2023/02/28 10:10:29;;;;;;;16.50;11.40;;;1.10;78.00;;;;;;5104766;28;20299;-84
2023/02/28 10:13:00;;;;;;;15.70;11.67;;;1.00;76.20;;;;;;5109990;27;20199;-84
2023/02/28 10:15:31;;;;;;;14.80;11.30;;;0.50;81.20;;;;;;5107168;28;20203;-85
2023/02/28 10:18:03;;;;;;;16.90;11.73;;;0.70;78.60;;;;;;5110717;28;20659;-84
2023/02/28 10:20:34;;;;;;;15.90;11.70;;;0.80;79.30;;;;;;5100543;28;20202;-84
2023/02/28 10:23:10;;;;;;;17.00;11.87;;;0.70;80.60;;;;;;5109341;28;21002;-84
2023/02/28 10:25:39;;;;;;;17.47;12.53;;;0.90;79.30;;;;;;5106908;27;20278;-84
2023/02/28 10:28:12;;;;;;;17.47;11.17;;;1.00;78.70;;;;;;5101671;27;20668;-86
2023/02/28 10:30:41;;;;;;;14.33;10.70;;;1.10;77.60;;;;;;5103070;28;20195;-83
2023/02/28 10:33:18;;;;;;;16.43;11.00;;;1.60;71.20;;;;;;5103984;28;20199;-84
2023/02/28 10:35:47;;;;;;;17.13;11.37;;;1.60;67.50;;;;;;5107587;28;20622;-85
2023/02/28 10:38:17;;;;;;;15.80;11.27;;;2.10;66.70;;;;;;5096959;28;20199;-84
2023/02/28 10:40:44;;;;;;;15.47;11.03;;;2.50;58.10;;;;;;5110010;28;20675;-83
2023/02/28 10:43:21;;;;;;;15.63;10.77;;;2.90;53.00;;;;;;5110313;28;20215;-84
2023/02/28 10:46:02;;;;;;;16.17;10.27;;;3.30;48.70;;;;;;5105444;28;20204;-87
2023/02/28 10:48:35;;;;;;;15.97;10.97;;;3.50;43.00;;;;;;5103963;28;20227;-86
2023/02/28 10:51:05;;;;;;;12.50;10.17;;;3.40;43.90;;;;;;5115817;28;20713;-86
2023/02/28 10:53:36;;;;;;;16.77;10.47;;;3.50;43.00;;;;;;5108355;28;20199;-86
2023/02/28 10:56:06;;;;;;;14.20;11.03;;;3.40;43.00;;;;;;5111332;28;20206;-86
2023/02/28 10:58:47;;;;;;;13.40;10.07;;;3.70;41.60;;;;;;5110884;28;20204;-86
2023/02/28 11:01:16;;;;;;;16.97;11.50;;;3.60;43.20;;;;;;5106528;28;20200;-87
2023/02/28 11:03:43;;;;;;;16.07;11.23;;;3.50;43.00;;;;;;5094779;28;20680;-86
2023/02/28 11:06:16;;;;;;;16.53;11.33;;;3.20;42.80;;;;;;5097577;28;20208;-86
2023/02/28 11:08:53;;;;;;;17.00;11.67;;;2.90;45.30;;;;;;5102582;28;20223;-86
2023/02/28 11:11:22;;;;;;;14.87;11.00;;;2.90;44.60;;;;;;5105180;28;20188;-86
2023/02/28 11:13:53;;;;;;;16.40;11.17;;;2.80;44.80;;;;;;5099110;28;20208;-86
2023/02/28 11:16:22;;;;;;;13.00;11.17;;;2.80;46.20;;;;;;5104220;28;20188;-86
2023/02/28 11:18:50;;;;;;;16.90;11.63;;;2.50;48.40;;;;;;5097637;28;20207;-85
2023/02/28 11:21:23;;;;;;;16.43;11.27;;;2.50;51.50;;;;;;5107060;28;20196;-85
2023/02/28 11:23:52;;;;;;;14.87;11.17;;;2.40;51.30;;;;;;5107032;28;20331;-85
2023/02/28 11:26:42;;;;;;;16.27;11.30;;;2.30;54.60;;;;;;5106029;28;20203;-85
2023/02/28 11:29:19;;;;;;;17.03;10.87;;;2.40;55.90;;;;;;5106892;28;20216;-85
2023/02/28 11:32:03;;;;;;;15.77;10.77;;;2.40;57.60;;;;;;5108284;28;20847;-85
2023/02/28 11:34:31;;;;;;;19.70;11.70;;;2.40;56.50;;;;;;5106013;28;20193;-85
2023/02/28 11:37:04;;;;;;;18.70;11.67;;;2.40;56.20;;;;;;5088307;28;20583;-85
2023/02/28 11:39:32;;;;;;;17.10;11.17;;;2.80;55.50;;;;;;5102872;28;20209;-85
2023/02/28 11:42:36;;;;;;;13.87;11.07;;;3.00;50.80;;;;;;5110330;28;20203;-86
2023/02/28 11:45:17;;;;;;;15.83;10.50;;;3.10;51.20;;;;;;5094334;28;20275;-85
2023/02/28 11:47:52;;;;;;;15.20;10.60;;;3.20;49.40;;;;;;5097821;28;20200;-87
2023/02/28 11:51:01;;;;;;;13.17;10.87;;;3.30;47.80;;;;;;5106708;28;20216;-87
2023/02/28 11:53:49;;;;;;;18.27;11.40;;;3.30;47.40;;;;;;5069148;28;20192;-87
2023/02/28 11:56:22;;;;;;;13.47;10.27;;;3.20;46.20;;;;;;5063509;28;20689;-87
2023/02/28 11:59:00;;;;;;;15.13;10.70;;;3.10;50.50;;;;;;5093988;28;20197;-87
2023/02/28 12:01:39;;;;;;;14.83;11.17;;;3.10;51.50;;;;;;5105659;28;20207;-85
2023/02/28 12:04:23;;;;;;;16.60;11.00;;;3.40;48.90;;;;;;5106821;28;20283;-86
2023/02/28 12:06:57;;;;;;;15.53;10.73;;;3.40;48.40;;;;;;5102235;28;20248;-87
2023/02/28 12:09:47;;;;;;;16.20;10.73;;;3.70;43.20;;;;;;5107007;28;20204;-87
2023/02/28 12:12:24;;;;;;;14.43;11.10;;;3.80;42.30;;;;;;5107521;28;20587;-89
2023/02/28 12:15:06;;;;;;;17.43;11.57;;;4.10;42.70;;;;;;5109735;28;20203;-89
2023/02/28 12:17:47;;;;;;;16.83;10.77;;;4.20;39.70;;;;;;5103135;27;20201;-89
2023/02/28 12:20:24;;;;;;;14.97;10.20;;;4.40;40.90;;;;;;5113996;28;20243;-89
2023/02/28 12:23:02;;;;;;;15.47;11.10;;;4.40;40.50;;;;;;5111299;28;20224;-86
2023/02/28 12:26:02;;;;;;;12.53;9.90;;;4.60;37.70;;;;;;5105019;28;20195;-83
2023/02/28 12:28:34;;;;;;;14.53;9.90;;;4.00;36.80;;;;;;5107323;28;20660;-85
2023/02/28 12:31:06;;;;;;;12.83;10.17;;;4.10;39.00;;;;;;5112066;28;20191;-84
2023/02/28 12:33:37;;;;;;;17.30;10.63;;;4.00;38.10;;;;;;5111117;28;20209;-84
2023/02/28 12:36:09;;;;;;;13.73;10.93;;;4.00;38.80;;;;;;5106718;27;20212;-84
2023/02/28 12:38:42;;;;;;;13.97;10.27;;;4.00;40.70;;;;;;5111066;28;20199;-84
2023/02/28 12:41:15;;;;;;;14.07;9.70;;;4.00;38.70;;;;;;5111644;28;20208;-83
2023/02/28 12:43:46;;;;;;;12.07;9.60;;;4.10;39.80;;;;;;5112845;28;20678;-84
2023/02/28 12:46:18;;;;;;;12.33;10.03;;;4.30;38.70;;;;;;5109170;28;20652;-85
2023/02/28 12:48:48;;;;;;;15.53;10.70;;;4.30;35.90;;;;;;5113550;27;20212;-85
2023/02/28 12:51:17;;;;;;;12.80;9.70;;;4.40;38.00;;;;;;5111058;27;20196;-88
2023/02/28 12:54:00;;;;;;;13.30;9.73;;;4.50;35.60;;;;;;5105323;27;20663;-84
2023/02/28 12:56:40;;;;;;;14.63;10.50;;;4.30;35.80;;;;;;5107954;27;20200;-84